Main page
METAR-TAF:

METAR-TAF

Airports :

Pyongyang, North Korea

Pyongyang Sunan International Airport

latitude: 39-02N, longitude: 125-47E, elevation: 36 m

METAR: missing

Time: 22:22 (13:52 UTC)

Forecast

The report was made 9 hours and 52 minutes ago, at 04:00 UTC
Forecast valid from 23 at 06 UTC to 24 at 06 UTC
Wind 8 kt from the South/Southeast
Visibility: 4000 m
Overcast at a height of 1700 ft
light rain
Temporary
from 23 at 08 UTC to 23 at 24 UTC
Visibility: 1500 m
Scattered clouds at a height of 1000 ft, Cumulonimbus.
Overcast at a height of 1700 ft
(light) rain showers

TAF: ZKPY 230400Z 2306/2406 15004MPS 4000 -RA OVC017 TEMPO 2308/2324 1500 - SHRA SCT010CB OVC017

Weather observations and forecasts of more than 4000 airports (METAR and TAF reports).

The available stations are represented by yellow and red dots on the map.

Hover mouse over dot to see the name of the station.

Then click to see weather observations and forecasts.

To change the map : click on the green buttons with a black cross to zoom in, on the green button with a dash to zoom out, or on the green arrows for adjacent maps.


METAR-TAF: